Map

Track Data

SID SEASON NUMBER BASIN SUBBASIN NAME ISO_TIME NATURE LAT LON WMO_WIND WMO_PRES WMO_AGENCY TRACK_TYPE DIST2LAND LANDFALL IFLAG USA_AGENCY USA_ATCF_ID USA_LAT USA_LON USA_RECORD USA_STATUS USA_WIND USA_PRES USA_SSHS USA_R34_NE USA_R34_SE USA_R34_SW USA_R34_NW USA_R50_NE USA_R50_SE USA_R50_SW USA_R50_NW USA_R64_NE USA_R64_SE USA_R64_SW USA_R64_NW USA_POCI USA_ROCI USA_RMW USA_EYE TOKYO_LAT TOKYO_LON TOKYO_GRADE TOKYO_WIND TOKYO_PRES TOKYO_R50_DIR TOKYO_R50_LONG TOKYO_R50_SHORT TOKYO_R30_DIR TOKYO_R30_LONG TOKYO_R30_SHORT TOKYO_LAND CMA_LAT CMA_LON CMA_CAT CMA_WIND CMA_PRES HKO_LAT HKO_LON HKO_CAT HKO_WIND HKO_PRES NEWDELHI_LAT NEWDELHI_LON NEWDELHI_GRADE NEWDELHI_WIND NEWDELHI_PRES NEWDELHI_CI NEWDELHI_DP NEWDELHI_POCI REUNION_LAT REUNION_LON REUNION_TYPE REUNION_WIND REUNION_PRES REUNION_TNUM REUNION_CI REUNION_RMW REUNION_R34_NE REUNION_R34_SE REUNION_R34_SW REUNION_R34_NW REUNION_R50_NE REUNION_R50_SE REUNION_R50_SW REUNION_R50_NW REUNION_R64_NE REUNION_R64_SE REUNION_R64_SW REUNION_R64_NW BOM_LAT BOM_LON BOM_TYPE BOM_WIND BOM_PRES BOM_TNUM BOM_CI BOM_RMW BOM_R34_NE BOM_R34_SE BOM_R34_SW BOM_R34_NW BOM_R50_NE BOM_R50_SE BOM_R50_SW BOM_R50_NW BOM_R64_NE BOM_R64_SE BOM_R64_SW BOM_R64_NW BOM_ROCI BOM_POCI BOM_EYE BOM_POS_METHOD BOM_PRES_METHOD NADI_LAT NADI_LON NADI_CAT NADI_WIND NADI_PRES WELLINGTON_LAT WELLINGTON_LON WELLINGTON_WIND WELLINGTON_PRES DS824_LAT DS824_LON DS824_STAGE DS824_WIND DS824_PRES TD9636_LAT TD9636_LON TD9636_STAGE TD9636_WIND TD9636_PRES TD9635_LAT TD9635_LON TD9635_WIND TD9635_PRES TD9635_ROCI NEUMANN_LAT NEUMANN_LON NEUMANN_CLASS NEUMANN_WIND NEUMANN_PRES MLC_LAT MLC_LON MLC_CLASS MLC_WIND MLC_PRES USA_GUST BOM_GUST BOM_GUST_PER REUNION_GUST REUNION_GUST_PER USA_SEAHGT USA_SEARAD_NE USA_SEARAD_SE USA_SEARAD_SW USA_SEARAD_NW STORM_SPEED STORM_DIR
1939260N12116 1939 62 WP MM NOT_NAMED 1939-09-17 10:00:00 NR 12.4000 115.700 main 424 424 __________O___ -1 12.4000 115.700 7 10 292
1939260N12116 1939 62 WP MM NOT_NAMED 1939-09-17 12:00:00 NR 12.5209 115.396 main 453 453 __________P___ -1 12.5209 115.396 7 10 292
1939260N12116 1939 62 WP MM NOT_NAMED 1939-09-17 15:00:00 NR 12.7065 114.941 main 503 503 __________P___ -1 12.7065 114.941 7 10 293
1939260N12116 1939 62 WP MM NOT_NAMED 1939-09-17 18:00:00 NR 12.9042 114.490 main 542 488 __________P___ -1 12.9042 114.490 7 10 295
1939260N12116 1939 62 WP MM NOT_NAMED 1939-09-17 21:00:00 NR 13.1217 114.046 main 488 478 __________P___ -1 13.1217 114.046 7 10 297
1939260N12116 1939 62 WP MM NOT_NAMED 1939-09-17 22:00:00 NR 13.2000 113.900 main 478 447 __________O___ -1 13.2000 113.900 7 10 300
1939260N12116 1939 62 WP MM NOT_NAMED 1939-09-18 00:00:00 NR 13.3660 113.611 main 447 408 __________P___ -1 13.3660 113.611 7 10 302
1939260N12116 1939 62 WP MM NOT_NAMED 1939-09-18 03:00:00 NR 13.6341 113.184 main 408 374 __________P___ -1 13.6341 113.184 7 10 304
1939260N12116 1939 62 WP MM NOT_NAMED 1939-09-18 06:00:00 NR 13.9167 112.761 main 374 325 __________P___ -1 13.9167 112.761 7 10 305
1939260N12116 1939 62 WP MM NOT_NAMED 1939-09-18 09:00:00 NR 14.2045 112.340 main 325 316 __________P___ -1 14.2045 112.340 7 10 305
1939260N12116 1939 62 WP MM NOT_NAMED 1939-09-18 10:00:00 NR 14.3000 112.200 main 316 288 __________O___ -1 14.3000 112.200 7 10 304
1939260N12116 1939 62 WP MM NOT_NAMED 1939-09-18 12:00:00 NR 14.4779 111.919 main 288 253 __________P___ -1 14.4779 111.919 7 10 303
1939260N12116 1939 62 WP MM NOT_NAMED 1939-09-18 15:00:00 NR 14.7447 111.498 main 253 217 __________P___ -1 14.7447 111.498 7 10 303
1939260N12116 1939 62 WP MM NOT_NAMED 1939-09-18 18:00:00 NR 15.0172 111.074 main 217 174 __________P___ -1 15.0172 111.074 7 10 304
1939260N12116 1939 62 WP MM NOT_NAMED 1939-09-18 21:00:00 NR 15.3015 110.645 main 174 169 __________P___ -1 15.3015 110.645 7 10 305
1939260N12116 1939 62 WP MM NOT_NAMED 1939-09-18 22:00:00 NR 15.4000 110.500 main 169 146 __________O___ -1 15.4000 110.500 3 10 306
1939260N12116 1939 62 WP MM NOT_NAMED 1939-09-19 00:00:00 NR 15.6049 110.216 main 146 124 __________P___ -1 15.6049 110.216 3 10 307
1939260N12116 1939 62 WP MM NOT_NAMED 1939-09-19 03:00:00 NR 15.9251 109.784 main 124 111 __________P___ -1 15.9251 109.784 3 11 308
1939260N12116 1939 62 WP MM NOT_NAMED 1939-09-19 06:00:00 NR 16.2552 109.336 main 111 85 __________P___ -1 16.2552 109.336 3 11 307
1939260N12116 1939 62 WP MM NOT_NAMED 1939-09-19 09:00:00 NR 16.5890 108.864 main 92 85 __________P___ -1 16.5890 108.864 3 11 306
1939260N12116 1939 62 WP MM NOT_NAMED 1939-09-19 10:00:00 NR 16.7000 108.700 main 85 77 __________O___ -1 16.7000 108.700 4 12 305
1939260N12116 1939 62 WP MM NOT_NAMED 1939-09-19 12:00:00 NR 16.9206 108.359 main 84 69 __________P___ -1 16.9206 108.359 4 12 303
1939260N12116 1939 62 WP MM NOT_NAMED 1939-09-19 15:00:00 NR 17.2482 107.823 main 69 49 __________P___ -1 17.2482 107.823 4 12 302
1939260N12116 1939 62 WP MM NOT_NAMED 1939-09-19 18:00:00 NR 17.5722 107.265 main 59 21 __________P___ -1 17.5722 107.265 4 13 301
1939260N12116 1939 62 WP MM NOT_NAMED 1939-09-19 21:00:00 NR 17.8934 106.692 main 21 10 __________P___ -1 17.8934 106.692 4 13 300
1939260N12116 1939 62 WP MM NOT_NAMED 1939-09-19 22:00:00 NR 18.0000 106.500 main 10 __________O___ -1 18.0000 106.500 4 13 301

Digital Typhoon Data and Search

About IBTrACS Database

This database is a web-friendly format of International Best Track Archive for Climate Stewardship (IBTrACS), a global best track data archive curated by NOAA dating back to 1842.

Updated: 2021-12-01